Romoe Maersk — OXLC2 — position and weather

sailwx.info

Track history (hours):
 
Tides and Currents Weather Stations Pressure Air Temp Water Temp Dewpoint Dewpoint Depression Visibility Wind Speed Wind Dir Waves Ship Positions

Romoe Maersk

Last reported at 2017-Jun-23 00:21 UTC. Time now 2017-Jun-23 06:59 UTC.
Position N 01°14' E 103°33'.

Length 171 m; draft 7.8 m.

Type: Ship. MMSI: 220209000.

Date/timePositionNaut miles runAvg speedWind from/ knotsBaromVisibWave heightAir tempDewpointWater temp
2017-Jun-23 00:21N 01°14' E 103°33'0 0.8
2017-Jun-22 23:58N 01°14' E 103°33'1 1.5
2017-Jun-22 23:29N 01°13' E 103°32'1 2.6
2017-Jun-22 23:00N 01°13' E 103°33'2 4.8
2017-Jun-22 22:30N 01°11' E 103°35'4 7.1
2017-Jun-22 22:00N 01°11' E 103°39'5 9.5
2017-Jun-22 21:30N 01°08' E 103°43'5 9.4
2017-Jun-22 21:00N 01°10' E 103°47'5 9.4
2017-Jun-22 20:30N 01°12' E 103°52'5 9.5
2017-Jun-22 20:00N 01°14' E 103°56'5 9.8
2017-Jun-22 19:30N 01°15' E 104°01'  
2017-Jun-20 02:22N 01°15' E 104°01'513.0
2017-Jun-20 02:00N 01°13' E 103°57'713.3
2017-Jun-20 01:30N 01°11' E 103°50'612.3
2017-Jun-20 01:00N 01°07' E 103°45'611.8
2017-Jun-20 00:30N 01°03' E 103°41'710.8
2017-Jun-19 23:50N 01°05' E 103°34'511.9
2017-Jun-19 23:22N 01°08' E 103°29'  
Track history (hours):
 
Tides and Currents Weather Stations Pressure Air Temp Water Temp Dewpoint Dewpoint Depression Visibility Wind Speed Wind Dir Waves Ship Positions

Romoe Maersk

Last reported at 2017-Jun-23 00:21 UTC. Time now 2017-Jun-23 06:59 UTC.
Position N 01°14' E 103°33'.

Length 171 m; draft 7.8 m.

Type: Ship. MMSI: 220209000.

Date/timePositionNaut miles runAvg speedWind from/ knotsBaromVisibWave heightAir tempDewpointWater temp
2017-Jun-23 00:21N 01°14' E 103°33'0 0.8
2017-Jun-22 23:58N 01°14' E 103°33'1 1.5
2017-Jun-22 23:29N 01°13' E 103°32'1 2.6
2017-Jun-22 23:00N 01°13' E 103°33'2 4.8
2017-Jun-22 22:30N 01°11' E 103°35'4 7.1
2017-Jun-22 22:00N 01°11' E 103°39'5 9.5
2017-Jun-22 21:30N 01°08' E 103°43'5 9.4
2017-Jun-22 21:00N 01°10' E 103°47'5 9.4
2017-Jun-22 20:30N 01°12' E 103°52'5 9.5
2017-Jun-22 20:00N 01°14' E 103°56'5 9.8
2017-Jun-22 19:30N 01°15' E 104°01'  
2017-Jun-20 02:22N 01°15' E 104°01'513.0
2017-Jun-20 02:00N 01°13' E 103°57'713.3
2017-Jun-20 01:30N 01°11' E 103°50'612.3
2017-Jun-20 01:00N 01°07' E 103°45'611.8
2017-Jun-20 00:30N 01°03' E 103°41'710.8
2017-Jun-19 23:50N 01°05' E 103°34'511.9
2017-Jun-19 23:22N 01°08' E 103°29'  

Dump ship's entire track history